sensor_id;sensor_type;location;lat;lon;timestamp;temperature;humidity
13203;DHT22;6666;51.626;7.530;2023-07-31T00:00:15;16.10;99.90
13203;DHT22;6666;51.626;7.530;2023-07-31T00:02:43;16.10;99.90
13203;DHT22;6666;51.626;7.530;2023-07-31T00:05:11;16.00;99.90
13203;DHT22;6666;51.626;7.530;2023-07-31T00:07:39;16.00;99.90
13203;DHT22;6666;51.626;7.530;2023-07-31T00:10:08;16.00;99.90
13203;DHT22;6666;51.626;7.530;2023-07-31T00:12:38;15.90;99.90
13203;DHT22;6666;51.626;7.530;2023-07-31T00:15:07;15.90;99.90
13203;DHT22;6666;51.626;7.530;2023-07-31T00:17:37;15.80;99.90
13203;DHT22;6666;51.626;7.530;2023-07-31T00:20:06;15.80;99.90
13203;DHT22;6666;51.626;7.530;2023-07-31T00:22:34;15.80;99.90
13203;DHT22;6666;51.626;7.530;2023-07-31T00:25:03;15.80;99.90
13203;DHT22;6666;51.626;7.530;2023-07-31T00:27:33;15.80;99.90
13203;DHT22;6666;51.626;7.530;2023-07-31T00:30:02;15.90;99.90
13203;DHT22;6666;51.626;7.530;2023-07-31T00:32:32;15.80;99.90
13203;DHT22;6666;51.626;7.530;2023-07-31T00:35:04;15.90;99.90
13203;DHT22;6666;51.626;7.530;2023-07-31T00:37:32;15.90;99.90
13203;DHT22;6666;51.626;7.530;2023-07-31T00:40:01;15.80;99.90
13203;DHT22;6666;51.626;7.530;2023-07-31T00:42:31;15.80;99.90
13203;DHT22;6666;51.626;7.530;2023-07-31T00:44:59;15.70;99.90
13203;DHT22;6666;51.626;7.530;2023-07-31T00:47:27;15.80;99.90
13203;DHT22;6666;51.626;7.530;2023-07-31T00:49:55;15.80;99.90
13203;DHT22;6666;51.626;7.530;2023-07-31T00:52:25;15.80;99.90
13203;DHT22;6666;51.626;7.530;2023-07-31T00:54:55;15.80;99.90
13203;DHT22;6666;51.626;7.530;2023-07-31T00:57:24;15.80;99.90
13203;DHT22;6666;51.626;7.530;2023-07-31T00:59:53;15.80;99.90
13203;DHT22;6666;51.626;7.530;2023-07-31T01:02:21;15.80;99.90
13203;DHT22;6666;51.626;7.530;2023-07-31T01:04:49;15.80;99.90
13203;DHT22;6666;51.626;7.530;2023-07-31T01:07:22;15.90;99.90
13203;DHT22;6666;51.626;7.530;2023-07-31T01:10:00;15.90;99.90
13203;DHT22;6666;51.626;7.530;2023-07-31T01:12:31;15.90;99.90
13203;DHT22;6666;51.626;7.530;2023-07-31T01:15:04;16.00;99.90
13203;DHT22;6666;51.626;7.530;2023-07-31T01:17:33;16.10;99.90
13203;DHT22;6666;51.626;7.530;2023-07-31T01:20:03;16.10;99.90
13203;DHT22;6666;51.626;7.530;2023-07-31T01:22:48;16.10;99.90
13203;DHT22;6666;51.626;7.530;2023-07-31T01:25:35;16.20;99.90
13203;DHT22;6666;51.626;7.530;2023-07-31T01:28:13;16.30;99.90
13203;DHT22;6666;51.626;7.530;2023-07-31T01:30:46;16.20;99.90
13203;DHT22;6666;51.626;7.530;2023-07-31T01:33:16;16.30;99.90
13203;DHT22;6666;51.626;7.530;2023-07-31T01:35:47;16.30;99.90
13203;DHT22;6666;51.626;7.530;2023-07-31T01:38:20;16.30;99.90
13203;DHT22;6666;51.626;7.530;2023-07-31T01:40:51;16.30;99.90
13203;DHT22;6666;51.626;7.530;2023-07-31T01:43:21;16.30;99.90
13203;DHT22;6666;51.626;7.530;2023-07-31T01:45:51;16.30;99.90
13203;DHT22;6666;51.626;7.530;2023-07-31T01:51:17;16.30;99.90
13203;DHT22;6666;51.626;7.530;2023-07-31T01:53:45;16.30;99.90
13203;DHT22;6666;51.626;7.530;2023-07-31T01:56:13;16.30;99.90
13203;DHT22;6666;51.626;7.530;2023-07-31T01:58:43;16.30;99.90
13203;DHT22;6666;51.626;7.530;2023-07-31T02:01:11;16.30;99.90
13203;DHT22;6666;51.626;7.530;2023-07-31T02:03:39;16.30;99.90
13203;DHT22;6666;51.626;7.530;2023-07-31T02:06:09;16.30;99.90
13203;DHT22;6666;51.626;7.530;2023-07-31T02:08:37;16.30;99.90
13203;DHT22;6666;51.626;7.530;2023-07-31T02:11:13;16.30;99.90
13203;DHT22;6666;51.626;7.530;2023-07-31T02:13:42;16.20;99.90
13203;DHT22;6666;51.626;7.530;2023-07-31T02:16:10;16.30;99.90
13203;DHT22;6666;51.626;7.530;2023-07-31T02:18:38;16.20;99.90
13203;DHT22;6666;51.626;7.530;2023-07-31T02:21:06;16.30;99.90
13203;DHT22;6666;51.626;7.530;2023-07-31T02:23:35;16.30;99.90
13203;DHT22;6666;51.626;7.530;2023-07-31T02:26:03;16.30;99.90
13203;DHT22;6666;51.626;7.530;2023-07-31T02:28:31;16.20;99.90
13203;DHT22;6666;51.626;7.530;2023-07-31T02:31:00;16.30;99.90
13203;DHT22;6666;51.626;7.530;2023-07-31T02:33:29;16.30;99.90
13203;DHT22;6666;51.626;7.530;2023-07-31T02:35:58;16.20;99.90
13203;DHT22;6666;51.626;7.530;2023-07-31T02:38:26;16.20;99.90
13203;DHT22;6666;51.626;7.530;2023-07-31T02:40:54;16.30;99.90
13203;DHT22;6666;51.626;7.530;2023-07-31T02:43:22;16.20;99.90
13203;DHT22;6666;51.626;7.530;2023-07-31T02:45:51;16.20;99.90
13203;DHT22;6666;51.626;7.530;2023-07-31T02:48:21;16.20;99.90
13203;DHT22;6666;51.626;7.530;2023-07-31T02:50:49;16.20;99.90
13203;DHT22;6666;51.626;7.530;2023-07-31T02:53:17;16.20;99.90
13203;DHT22;6666;51.626;7.530;2023-07-31T02:55:45;16.20;99.90
13203;DHT22;6666;51.626;7.530;2023-07-31T02:58:13;16.20;99.90
13203;DHT22;6666;51.626;7.530;2023-07-31T03:00:42;16.20;99.90
13203;DHT22;6666;51.626;7.530;2023-07-31T03:03:10;16.20;99.90
13203;DHT22;6666;51.626;7.530;2023-07-31T03:05:40;16.20;99.90
13203;DHT22;6666;51.626;7.530;2023-07-31T03:08:08;16.30;99.90
13203;DHT22;6666;51.626;7.530;2023-07-31T03:10:36;16.20;99.90
13203;DHT22;6666;51.626;7.530;2023-07-31T03:13:04;16.20;99.90
13203;DHT22;6666;51.626;7.530;2023-07-31T03:15:33;16.20;99.90
13203;DHT22;6666;51.626;7.530;2023-07-31T03:18:01;16.20;99.90
13203;DHT22;6666;51.626;7.530;2023-07-31T03:20:29;16.20;99.90
13203;DHT22;6666;51.626;7.530;2023-07-31T03:22:59;16.20;99.90
13203;DHT22;6666;51.626;7.530;2023-07-31T03:25:27;16.20;99.90
13203;DHT22;6666;51.626;7.530;2023-07-31T03:27:55;16.20;99.90
13203;DHT22;6666;51.626;7.530;2023-07-31T03:30:23;16.20;99.90
13203;DHT22;6666;51.626;7.530;2023-07-31T03:32:51;16.20;99.90
13203;DHT22;6666;51.626;7.530;2023-07-31T03:35:20;16.20;99.90
13203;DHT22;6666;51.626;7.530;2023-07-31T03:37:48;16.20;99.90
13203;DHT22;6666;51.626;7.530;2023-07-31T03:40:18;16.20;99.90
13203;DHT22;6666;51.626;7.530;2023-07-31T03:42:46;16.20;99.90
13203;DHT22;6666;51.626;7.530;2023-07-31T03:45:14;16.20;99.90
13203;DHT22;6666;51.626;7.530;2023-07-31T03:47:42;16.20;99.90
13203;DHT22;6666;51.626;7.530;2023-07-31T03:50:10;16.20;99.90
13203;DHT22;6666;51.626;7.530;2023-07-31T03:52:38;16.20;99.90
13203;DHT22;6666;51.626;7.530;2023-07-31T03:55:07;16.20;99.90
13203;DHT22;6666;51.626;7.530;2023-07-31T03:57:36;16.20;99.90
13203;DHT22;6666;51.626;7.530;2023-07-31T04:00:05;16.30;99.90
13203;DHT22;6666;51.626;7.530;2023-07-31T04:02:38;16.20;99.90
13203;DHT22;6666;51.626;7.530;2023-07-31T04:05:06;16.20;99.90
13203;DHT22;6666;51.626;7.530;2023-07-31T04:07:34;16.20;99.90
13203;DHT22;6666;51.626;7.530;2023-07-31T04:10:03;16.20;99.90
13203;DHT22;6666;51.626;7.530;2023-07-31T04:12:31;16.20;99.90
13203;DHT22;6666;51.626;7.530;2023-07-31T04:15:01;16.30;99.90
13203;DHT22;6666;51.626;7.530;2023-07-31T04:17:30;16.30;99.90
13203;DHT22;6666;51.626;7.530;2023-07-31T04:19:58;16.30;99.90
13203;DHT22;6666;51.626;7.530;2023-07-31T04:22:27;16.30;99.90
13203;DHT22;6666;51.626;7.530;2023-07-31T04:24:55;16.30;99.90
13203;DHT22;6666;51.626;7.530;2023-07-31T04:27:23;16.30;99.90
13203;DHT22;6666;51.626;7.530;2023-07-31T04:29:51;16.40;99.90
13203;DHT22;6666;51.626;7.530;2023-07-31T04:32:21;16.30;99.90
13203;DHT22;6666;51.626;7.530;2023-07-31T04:34:49;16.30;99.90
13203;DHT22;6666;51.626;7.530;2023-07-31T04:37:17;16.40;99.90
13203;DHT22;6666;51.626;7.530;2023-07-31T04:39:45;16.50;99.90
13203;DHT22;6666;51.626;7.530;2023-07-31T04:42:13;16.50;99.90
13203;DHT22;6666;51.626;7.530;2023-07-31T04:44:41;16.50;99.90
13203;DHT22;6666;51.626;7.530;2023-07-31T04:47:09;16.50;99.90
13203;DHT22;6666;51.626;7.530;2023-07-31T04:49:39;16.50;99.90
13203;DHT22;6666;51.626;7.530;2023-07-31T04:52:07;16.50;99.90
13203;DHT22;6666;51.626;7.530;2023-07-31T04:54:35;16.50;99.90
13203;DHT22;6666;51.626;7.530;2023-07-31T04:57:03;16.50;99.90
13203;DHT22;6666;51.626;7.530;2023-07-31T04:59:31;16.60;99.90
13203;DHT22;6666;51.626;7.530;2023-07-31T05:02:00;16.60;99.90
13203;DHT22;6666;51.626;7.530;2023-07-31T05:04:28;16.60;99.90
13203;DHT22;6666;51.626;7.530;2023-07-31T05:06:57;16.60;99.90
13203;DHT22;6666;51.626;7.530;2023-07-31T05:09:25;16.60;99.90
13203;DHT22;6666;51.626;7.530;2023-07-31T05:11:53;16.60;99.90
13203;DHT22;6666;51.626;7.530;2023-07-31T05:14:22;16.60;99.90
13203;DHT22;6666;51.626;7.530;2023-07-31T05:16:50;16.60;99.90
13203;DHT22;6666;51.626;7.530;2023-07-31T05:19:19;16.60;99.90
13203;DHT22;6666;51.626;7.530;2023-07-31T05:21:47;16.60;99.90
13203;DHT22;6666;51.626;7.530;2023-07-31T05:24:16;16.60;99.90
13203;DHT22;6666;51.626;7.530;2023-07-31T05:26:44;16.60;99.90
13203;DHT22;6666;51.626;7.530;2023-07-31T05:29:12;16.60;99.90
13203;DHT22;6666;51.626;7.530;2023-07-31T05:31:41;16.60;99.90
13203;DHT22;6666;51.626;7.530;2023-07-31T05:34:09;16.50;99.90
13203;DHT22;6666;51.626;7.530;2023-07-31T05:36:37;16.60;99.90
13203;DHT22;6666;51.626;7.530;2023-07-31T05:39:05;16.60;99.90
13203;DHT22;6666;51.626;7.530;2023-07-31T05:41:36;16.70;99.90
13203;DHT22;6666;51.626;7.530;2023-07-31T05:44:04;16.70;99.90
13203;DHT22;6666;51.626;7.530;2023-07-31T05:46:33;16.80;99.90
13203;DHT22;6666;51.626;7.530;2023-07-31T05:49:01;16.80;99.90
13203;DHT22;6666;51.626;7.530;2023-07-31T05:51:29;16.90;99.90
13203;DHT22;6666;51.626;7.530;2023-07-31T05:53:57;16.90;99.90
13203;DHT22;6666;51.626;7.530;2023-07-31T05:56:25;16.90;99.90
13203;DHT22;6666;51.626;7.530;2023-07-31T05:58:55;16.90;99.90
13203;DHT22;6666;51.626;7.530;2023-07-31T06:01:24;16.80;99.90
13203;DHT22;6666;51.626;7.530;2023-07-31T06:03:52;16.80;99.90
13203;DHT22;6666;51.626;7.530;2023-07-31T06:06:20;16.70;99.90
13203;DHT22;6666;51.626;7.530;2023-07-31T06:08:48;16.70;99.90
13203;DHT22;6666;51.626;7.530;2023-07-31T06:11:16;16.70;99.90
13203;DHT22;6666;51.626;7.530;2023-07-31T06:13:44;16.70;99.90
13203;DHT22;6666;51.626;7.530;2023-07-31T06:16:16;16.70;99.90
13203;DHT22;6666;51.626;7.530;2023-07-31T06:18:44;16.70;99.90
13203;DHT22;6666;51.626;7.530;2023-07-31T06:21:12;16.80;99.90
13203;DHT22;6666;51.626;7.530;2023-07-31T06:23:40;16.80;99.90
13203;DHT22;6666;51.626;7.530;2023-07-31T06:26:09;16.80;99.90
13203;DHT22;6666;51.626;7.530;2023-07-31T06:28:37;16.90;99.90
13203;DHT22;6666;51.626;7.530;2023-07-31T06:31:05;16.90;99.90
13203;DHT22;6666;51.626;7.530;2023-07-31T06:33:35;16.90;99.90
13203;DHT22;6666;51.626;7.530;2023-07-31T06:36:03;16.90;99.90
13203;DHT22;6666;51.626;7.530;2023-07-31T06:38:31;16.90;99.90
13203;DHT22;6666;51.626;7.530;2023-07-31T06:40:59;17.00;99.90
13203;DHT22;6666;51.626;7.530;2023-07-31T06:43:27;16.90;99.90
13203;DHT22;6666;51.626;7.530;2023-07-31T06:45:55;16.90;99.90
13203;DHT22;6666;51.626;7.530;2023-07-31T06:48:23;16.90;99.90
13203;DHT22;6666;51.626;7.530;2023-07-31T06:50:53;16.90;99.90
13203;DHT22;6666;51.626;7.530;2023-07-31T06:53:21;17.00;99.90
13203;DHT22;6666;51.626;7.530;2023-07-31T06:55:49;17.00;99.90
13203;DHT22;6666;51.626;7.530;2023-07-31T06:58:18;16.90;99.90
13203;DHT22;6666;51.626;7.530;2023-07-31T07:00:46;16.90;99.90
13203;DHT22;6666;51.626;7.530;2023-07-31T07:03:18;16.80;99.90
13203;DHT22;6666;51.626;7.530;2023-07-31T07:05:47;16.90;99.90
13203;DHT22;6666;51.626;7.530;2023-07-31T07:08:16;16.90;99.90
13203;DHT22;6666;51.626;7.530;2023-07-31T07:10:44;16.90;99.90
13203;DHT22;6666;51.626;7.530;2023-07-31T07:13:13;16.90;99.90
13203;DHT22;6666;51.626;7.530;2023-07-31T07:15:41;16.90;99.90
13203;DHT22;6666;51.626;7.530;2023-07-31T07:18:09;17.00;99.90
13203;DHT22;6666;51.626;7.530;2023-07-31T07:20:38;17.10;99.90
13203;DHT22;6666;51.626;7.530;2023-07-31T07:23:06;17.10;99.90
13203;DHT22;6666;51.626;7.530;2023-07-31T07:25:39;17.20;99.90
13203;DHT22;6666;51.626;7.530;2023-07-31T07:28:07;17.20;99.90
13203;DHT22;6666;51.626;7.530;2023-07-31T07:30:35;17.20;99.90
13203;DHT22;6666;51.626;7.530;2023-07-31T07:33:03;17.20;99.90
13203;DHT22;6666;51.626;7.530;2023-07-31T07:35:33;17.30;99.90
13203;DHT22;6666;51.626;7.530;2023-07-31T07:38:01;17.30;99.90
13203;DHT22;6666;51.626;7.530;2023-07-31T07:40:30;17.40;99.90
13203;DHT22;6666;51.626;7.530;2023-07-31T07:42:59;17.40;99.90
13203;DHT22;6666;51.626;7.530;2023-07-31T07:45:27;17.40;99.90
13203;DHT22;6666;51.626;7.530;2023-07-31T07:47:56;17.40;99.90
13203;DHT22;6666;51.626;7.530;2023-07-31T07:50:24;17.40;99.90
13203;DHT22;6666;51.626;7.530;2023-07-31T07:52:53;17.30;99.90
13203;DHT22;6666;51.626;7.530;2023-07-31T07:55:21;17.30;99.90
13203;DHT22;6666;51.626;7.530;2023-07-31T07:57:49;17.40;99.90
13203;DHT22;6666;51.626;7.530;2023-07-31T08:00:19;17.40;99.90
13203;DHT22;6666;51.626;7.530;2023-07-31T08:02:47;17.50;99.90
13203;DHT22;6666;51.626;7.530;2023-07-31T08:05:16;17.40;99.90
13203;DHT22;6666;51.626;7.530;2023-07-31T08:07:44;17.40;99.90
13203;DHT22;6666;51.626;7.530;2023-07-31T08:10:12;17.50;99.90
13203;DHT22;6666;51.626;7.530;2023-07-31T08:12:40;17.40;99.90
13203;DHT22;6666;51.626;7.530;2023-07-31T08:15:09;17.30;99.90
13203;DHT22;6666;51.626;7.530;2023-07-31T08:17:39;17.30;99.90
13203;DHT22;6666;51.626;7.530;2023-07-31T08:20:08;17.30;99.90
13203;DHT22;6666;51.626;7.530;2023-07-31T08:22:36;17.30;99.90
13203;DHT22;6666;51.626;7.530;2023-07-31T08:25:05;17.50;99.90
13203;DHT22;6666;51.626;7.530;2023-07-31T08:27:34;17.60;99.90
13203;DHT22;6666;51.626;7.530;2023-07-31T08:30:02;17.70;99.90
13203;DHT22;6666;51.626;7.530;2023-07-31T08:32:31;17.70;99.90
13203;DHT22;6666;51.626;7.530;2023-07-31T08:35:01;17.60;99.90
13203;DHT22;6666;51.626;7.530;2023-07-31T08:37:29;17.70;99.90
13203;DHT22;6666;51.626;7.530;2023-07-31T08:39:57;17.70;99.90
13203;DHT22;6666;51.626;7.530;2023-07-31T08:42:25;17.60;99.90
13203;DHT22;6666;51.626;7.530;2023-07-31T08:44:57;17.80;99.90
13203;DHT22;6666;51.626;7.530;2023-07-31T08:47:27;17.80;99.90
13203;DHT22;6666;51.626;7.530;2023-07-31T08:49:56;17.90;99.90
13203;DHT22;6666;51.626;7.530;2023-07-31T08:52:26;17.80;99.90
13203;DHT22;6666;51.626;7.530;2023-07-31T08:54:55;17.90;99.90
13203;DHT22;6666;51.626;7.530;2023-07-31T08:57:23;17.90;99.90
13203;DHT22;6666;51.626;7.530;2023-07-31T08:59:51;17.70;99.90
13203;DHT22;6666;51.626;7.530;2023-07-31T09:02:21;17.60;99.90
13203;DHT22;6666;51.626;7.530;2023-07-31T09:04:49;17.60;99.90
13203;DHT22;6666;51.626;7.530;2023-07-31T09:07:18;17.60;99.90
13203;DHT22;6666;51.626;7.530;2023-07-31T09:09:47;17.60;99.90
13203;DHT22;6666;51.626;7.530;2023-07-31T09:12:16;17.70;99.90
13203;DHT22;6666;51.626;7.530;2023-07-31T09:14:46;17.60;99.90
13203;DHT22;6666;51.626;7.530;2023-07-31T09:17:15;17.60;99.90
13203;DHT22;6666;51.626;7.530;2023-07-31T09:19:45;17.60;99.90
13203;DHT22;6666;51.626;7.530;2023-07-31T09:22:13;17.60;99.90
13203;DHT22;6666;51.626;7.530;2023-07-31T09:24:41;17.60;99.90
13203;DHT22;6666;51.626;7.530;2023-07-31T09:27:10;17.70;99.90
13203;DHT22;6666;51.626;7.530;2023-07-31T09:29:39;17.90;99.90
13203;DHT22;6666;51.626;7.530;2023-07-31T09:32:16;17.70;99.90
13203;DHT22;6666;51.626;7.530;2023-07-31T09:34:44;17.60;99.90
13203;DHT22;6666;51.626;7.530;2023-07-31T09:37:12;17.50;99.90
13203;DHT22;6666;51.626;7.530;2023-07-31T09:39:47;17.50;99.90
13203;DHT22;6666;51.626;7.530;2023-07-31T09:42:26;17.60;99.90
13203;DHT22;6666;51.626;7.530;2023-07-31T09:45:07;17.60;99.90
13203;DHT22;6666;51.626;7.530;2023-07-31T09:47:35;17.70;99.90
13203;DHT22;6666;51.626;7.530;2023-07-31T09:50:07;17.70;99.90
13203;DHT22;6666;51.626;7.530;2023-07-31T09:52:38;17.80;99.90
13203;DHT22;6666;51.626;7.530;2023-07-31T09:55:07;17.90;99.90
13203;DHT22;6666;51.626;7.530;2023-07-31T09:57:40;17.90;99.90
13203;DHT22;6666;51.626;7.530;2023-07-31T10:00:09;17.90;99.90
13203;DHT22;6666;51.626;7.530;2023-07-31T10:02:38;17.80;99.90
13203;DHT22;6666;51.626;7.530;2023-07-31T10:05:08;17.80;99.90
13203;DHT22;6666;51.626;7.530;2023-07-31T10:07:37;17.90;99.90
13203;DHT22;6666;51.626;7.530;2023-07-31T10:10:08;17.90;99.90
13203;DHT22;6666;51.626;7.530;2023-07-31T10:12:38;17.80;99.90
13203;DHT22;6666;51.626;7.530;2023-07-31T10:15:08;18.00;99.90
13203;DHT22;6666;51.626;7.530;2023-07-31T10:17:38;18.00;99.90
13203;DHT22;6666;51.626;7.530;2023-07-31T10:20:07;17.90;99.90
13203;DHT22;6666;51.626;7.530;2023-07-31T10:22:35;17.90;99.90
13203;DHT22;6666;51.626;7.530;2023-07-31T10:25:06;17.90;99.90
13203;DHT22;6666;51.626;7.530;2023-07-31T10:27:38;17.90;99.90
13203;DHT22;6666;51.626;7.530;2023-07-31T10:30:08;17.90;99.90
13203;DHT22;6666;51.626;7.530;2023-07-31T10:32:38;17.90;99.90
13203;DHT22;6666;51.626;7.530;2023-07-31T10:35:07;18.00;99.90
13203;DHT22;6666;51.626;7.530;2023-07-31T10:37:40;17.90;99.90
13203;DHT22;6666;51.626;7.530;2023-07-31T10:40:11;18.00;99.90
13203;DHT22;6666;51.626;7.530;2023-07-31T10:42:47;18.00;99.90
13203;DHT22;6666;51.626;7.530;2023-07-31T10:45:24;18.10;99.90
13203;DHT22;6666;51.626;7.530;2023-07-31T10:47:59;18.10;99.90
13203;DHT22;6666;51.626;7.530;2023-07-31T10:50:30;18.20;99.90
13203;DHT22;6666;51.626;7.530;2023-07-31T10:53:00;18.30;99.90
13203;DHT22;6666;51.626;7.530;2023-07-31T10:55:31;18.20;99.90
13203;DHT22;6666;51.626;7.530;2023-07-31T10:58:07;18.30;99.90
13203;DHT22;6666;51.626;7.530;2023-07-31T11:00:37;18.20;99.90
13203;DHT22;6666;51.626;7.530;2023-07-31T11:03:07;18.20;99.90
13203;DHT22;6666;51.626;7.530;2023-07-31T11:05:49;18.30;99.90
13203;DHT22;6666;51.626;7.530;2023-07-31T11:08:19;18.20;99.90
13203;DHT22;6666;51.626;7.530;2023-07-31T11:10:49;18.30;99.90
13203;DHT22;6666;51.626;7.530;2023-07-31T11:13:19;18.20;99.90
13203;DHT22;6666;51.626;7.530;2023-07-31T11:15:47;18.10;99.90
13203;DHT22;6666;51.626;7.530;2023-07-31T11:18:15;18.10;99.90
13203;DHT22;6666;51.626;7.530;2023-07-31T11:20:44;17.90;99.90
13203;DHT22;6666;51.626;7.530;2023-07-31T11:23:12;17.90;99.90
13203;DHT22;6666;51.626;7.530;2023-07-31T11:25:41;18.00;99.90
13203;DHT22;6666;51.626;7.530;2023-07-31T11:28:10;18.10;99.90
13203;DHT22;6666;51.626;7.530;2023-07-31T11:30:41;18.00;99.90
13203;DHT22;6666;51.626;7.530;2023-07-31T11:33:10;17.90;99.90
13203;DHT22;6666;51.626;7.530;2023-07-31T11:35:42;17.90;99.90
13203;DHT22;6666;51.626;7.530;2023-07-31T11:38:12;17.90;99.90
13203;DHT22;6666;51.626;7.530;2023-07-31T11:40:44;17.80;99.90
13203;DHT22;6666;51.626;7.530;2023-07-31T11:43:12;17.90;99.90
13203;DHT22;6666;51.626;7.530;2023-07-31T11:45:47;18.00;99.90
13203;DHT22;6666;51.626;7.530;2023-07-31T11:48:22;18.00;99.90
13203;DHT22;6666;51.626;7.530;2023-07-31T11:50:51;18.00;99.90
13203;DHT22;6666;51.626;7.530;2023-07-31T11:53:25;18.20;99.90
13203;DHT22;6666;51.626;7.530;2023-07-31T11:55:55;18.30;99.90
13203;DHT22;6666;51.626;7.530;2023-07-31T11:58:23;18.30;99.90
13203;DHT22;6666;51.626;7.530;2023-07-31T12:00:53;18.30;99.90
13203;DHT22;6666;51.626;7.530;2023-07-31T12:03:21;18.30;99.90
13203;DHT22;6666;51.626;7.530;2023-07-31T12:05:50;18.40;99.90
13203;DHT22;6666;51.626;7.530;2023-07-31T12:08:21;18.40;99.90
13203;DHT22;6666;51.626;7.530;2023-07-31T12:10:50;18.40;99.90
13203;DHT22;6666;51.626;7.530;2023-07-31T12:13:21;18.50;99.90
13203;DHT22;6666;51.626;7.530;2023-07-31T12:15:55;18.60;99.90
13203;DHT22;6666;51.626;7.530;2023-07-31T12:18:25;18.70;99.90
13203;DHT22;6666;51.626;7.530;2023-07-31T12:20:55;18.80;99.90
13203;DHT22;6666;51.626;7.530;2023-07-31T12:23:24;18.90;99.90
13203;DHT22;6666;51.626;7.530;2023-07-31T12:26:01;18.90;99.90
13203;DHT22;6666;51.626;7.530;2023-07-31T12:28:30;18.90;99.90
13203;DHT22;6666;51.626;7.530;2023-07-31T12:31:00;19.00;99.90
13203;DHT22;6666;51.626;7.530;2023-07-31T12:33:31;19.00;99.90
13203;DHT22;6666;51.626;7.530;2023-07-31T12:36:01;19.10;99.90
13203;DHT22;6666;51.626;7.530;2023-07-31T12:38:31;19.10;99.90
13203;DHT22;6666;51.626;7.530;2023-07-31T12:40:59;18.90;99.90
13203;DHT22;6666;51.626;7.530;2023-07-31T12:43:27;18.90;99.90
13203;DHT22;6666;51.626;7.530;2023-07-31T12:45:55;18.90;99.90
13203;DHT22;6666;51.626;7.530;2023-07-31T12:48:25;18.80;99.90
13203;DHT22;6666;51.626;7.530;2023-07-31T12:50:53;18.70;99.90
13203;DHT22;6666;51.626;7.530;2023-07-31T12:53:21;18.60;99.90
13203;DHT22;6666;51.626;7.530;2023-07-31T12:55:50;18.70;99.90
13203;DHT22;6666;51.626;7.530;2023-07-31T12:58:18;18.60;99.90
13203;DHT22;6666;51.626;7.530;2023-07-31T13:00:46;18.60;99.90
13203;DHT22;6666;51.626;7.530;2023-07-31T13:03:14;18.60;99.90
13203;DHT22;6666;51.626;7.530;2023-07-31T13:05:44;18.70;99.90
13203;DHT22;6666;51.626;7.530;2023-07-31T13:08:12;18.60;99.90
13203;DHT22;6666;51.626;7.530;2023-07-31T13:10:42;18.60;99.90
13203;DHT22;6666;51.626;7.530;2023-07-31T13:13:10;18.60;99.90
13203;DHT22;6666;51.626;7.530;2023-07-31T13:15:38;18.50;99.90
13203;DHT22;6666;51.626;7.530;2023-07-31T13:18:07;18.50;99.90
13203;DHT22;6666;51.626;7.530;2023-07-31T13:20:35;18.50;99.90
13203;DHT22;6666;51.626;7.530;2023-07-31T13:23:05;18.60;99.90
13203;DHT22;6666;51.626;7.530;2023-07-31T13:25:33;18.70;99.90
13203;DHT22;6666;51.626;7.530;2023-07-31T13:28:02;18.90;99.90
13203;DHT22;6666;51.626;7.530;2023-07-31T13:30:30;19.20;99.90
13203;DHT22;6666;51.626;7.530;2023-07-31T13:32:58;19.30;99.90
13203;DHT22;6666;51.626;7.530;2023-07-31T13:35:26;19.50;99.90
13203;DHT22;6666;51.626;7.530;2023-07-31T13:37:54;19.50;99.90
13203;DHT22;6666;51.626;7.530;2023-07-31T13:40:24;19.40;99.90
13203;DHT22;6666;51.626;7.530;2023-07-31T13:42:52;19.20;99.90
13203;DHT22;6666;51.626;7.530;2023-07-31T13:45:21;19.40;99.90
13203;DHT22;6666;51.626;7.530;2023-07-31T13:47:50;19.40;99.90
13203;DHT22;6666;51.626;7.530;2023-07-31T13:50:19;19.20;99.90
13203;DHT22;6666;51.626;7.530;2023-07-31T13:52:48;19.10;99.90
13203;DHT22;6666;51.626;7.530;2023-07-31T13:55:16;18.90;99.90
13203;DHT22;6666;51.626;7.530;2023-07-31T13:57:45;18.90;99.90
13203;DHT22;6666;51.626;7.530;2023-07-31T14:00:14;18.80;99.90
13203;DHT22;6666;51.626;7.530;2023-07-31T14:02:42;18.90;99.90
13203;DHT22;6666;51.626;7.530;2023-07-31T14:05:10;19.00;99.90
13203;DHT22;6666;51.626;7.530;2023-07-31T14:07:38;19.10;99.90
13203;DHT22;6666;51.626;7.530;2023-07-31T14:10:07;19.10;99.90
13203;DHT22;6666;51.626;7.530;2023-07-31T14:12:35;19.00;99.90
13203;DHT22;6666;51.626;7.530;2023-07-31T14:15:11;19.00;99.90
13203;DHT22;6666;51.626;7.530;2023-07-31T14:17:39;18.90;99.90
13203;DHT22;6666;51.626;7.530;2023-07-31T14:20:08;19.00;99.90
13203;DHT22;6666;51.626;7.530;2023-07-31T14:22:37;19.00;99.90
13203;DHT22;6666;51.626;7.530;2023-07-31T14:25:06;19.10;99.90
13203;DHT22;6666;51.626;7.530;2023-07-31T14:27:36;19.20;99.90
13203;DHT22;6666;51.626;7.530;2023-07-31T14:30:06;19.40;99.90
13203;DHT22;6666;51.626;7.530;2023-07-31T14:32:36;19.70;99.90
13203;DHT22;6666;51.626;7.530;2023-07-31T14:35:05;19.80;99.90
13203;DHT22;6666;51.626;7.530;2023-07-31T14:37:37;19.90;99.90
13203;DHT22;6666;51.626;7.530;2023-07-31T14:40:06;19.80;99.90
13203;DHT22;6666;51.626;7.530;2023-07-31T14:42:35;19.70;99.90
13203;DHT22;6666;51.626;7.530;2023-07-31T14:45:04;19.60;99.90
13203;DHT22;6666;51.626;7.530;2023-07-31T14:47:33;19.50;99.90
13203;DHT22;6666;51.626;7.530;2023-07-31T14:50:03;19.40;99.90
13203;DHT22;6666;51.626;7.530;2023-07-31T14:52:32;19.50;99.90
13203;DHT22;6666;51.626;7.530;2023-07-31T14:55:00;19.40;99.90
13203;DHT22;6666;51.626;7.530;2023-07-31T14:57:28;19.50;99.90
13203;DHT22;6666;51.626;7.530;2023-07-31T14:59:56;19.40;99.90
13203;DHT22;6666;51.626;7.530;2023-07-31T15:02:26;19.40;99.90
13203;DHT22;6666;51.626;7.530;2023-07-31T15:04:54;19.40;99.90
13203;DHT22;6666;51.626;7.530;2023-07-31T15:07:24;19.40;99.90
13203;DHT22;6666;51.626;7.530;2023-07-31T15:09:52;19.30;99.90
13203;DHT22;6666;51.626;7.530;2023-07-31T15:12:20;19.20;99.90
13203;DHT22;6666;51.626;7.530;2023-07-31T15:14:48;19.30;99.90
13203;DHT22;6666;51.626;7.530;2023-07-31T15:17:17;19.20;99.90
13203;DHT22;6666;51.626;7.530;2023-07-31T15:19:45;19.10;99.90
13203;DHT22;6666;51.626;7.530;2023-07-31T15:22:13;19.10;99.90
13203;DHT22;6666;51.626;7.530;2023-07-31T15:24:42;19.10;99.90
13203;DHT22;6666;51.626;7.530;2023-07-31T15:27:11;19.10;99.90
13203;DHT22;6666;51.626;7.530;2023-07-31T15:29:39;19.10;99.90
13203;DHT22;6666;51.626;7.530;2023-07-31T15:32:07;19.10;99.90
13203;DHT22;6666;51.626;7.530;2023-07-31T15:34:35;19.20;99.90
13203;DHT22;6666;51.626;7.530;2023-07-31T15:37:04;19.10;99.90
13203;DHT22;6666;51.626;7.530;2023-07-31T15:39:32;19.10;99.90
13203;DHT22;6666;51.626;7.530;2023-07-31T15:42:03;19.10;99.90
13203;DHT22;6666;51.626;7.530;2023-07-31T15:44:32;19.20;99.90
13203;DHT22;6666;51.626;7.530;2023-07-31T15:47:00;19.20;99.90
13203;DHT22;6666;51.626;7.530;2023-07-31T15:49:29;19.20;99.90
13203;DHT22;6666;51.626;7.530;2023-07-31T15:51:59;19.10;99.90
13203;DHT22;6666;51.626;7.530;2023-07-31T15:54:27;19.10;99.90
13203;DHT22;6666;51.626;7.530;2023-07-31T15:56:55;19.00;99.90
13203;DHT22;6666;51.626;7.530;2023-07-31T15:59:25;19.00;99.90